Logo AVAMET
Benvolgut visitant, si us plau, ingressa Recuperar contrasenya

Tibi Maigmó

Dades diàries. Acumulats / Últims 30 dies disponibles

Data Temperatura (°C) Humitat rel. (%) Pressió rel. (hPa) Vent (km/h) Precipitació
Mínima Mitjana Màxima Amplitud
tèrmica
Mínima Mitjana Màxima Mínima Mitjana Màxima Predom. Mitjana Ràfega
màxima
Total
(mm)
Índex-n
Mínima Mitjana Màxima Mínima Mitjana Màxima n
0 a 1
P0 max
mm 5'
Dades mensuals acumulades fins l'últim dia disponible
05/2019 7,1 11,7 16,9 16,5 16,9 21,2 27,6 20,5 31 65 93 1.003 1.015 1.025   50,0 5,9
Dades anuals acumulades fins l'últim dia disponible
2019 -0,5 7,4 16,9 11,6 4,3 15,9 27,6 28,1 16 62 96 995 1.020 1.036   72,0 277,8
Últims 30 dies disponibles
24-05-2019 12,4     16,6     20,7 8,3 32 62 91 1.013 1.015 1.017 26,0 1,8
23-05-2019 12,1     18,6     25,2 13,1 31 50 69 1.016 1.018 1.020 29,0 0,0
22-05-2019 11,3     16,8     22,3 11,0 35 59 82 1.018 1.019 1.020 27,0 0,0
21-05-2019 12,2     16,6     21,1 8,9 36 62 87 1.014 1.017 1.019 27,0 0,0
20-05-2019 11,3     15,5     19,7 8,4 48 66 83 1.012 1.014 1.015 23,0 0,0
19-05-2019 9,7     13,9     18,2 8,5 37 63 89 1.011 1.013 1.014 21,0 0,0
18-05-2019 9,7     13,4     17,2 7,5 46 68 89 1.009 1.011 1.012 24,0 0,0
17-05-2019 11,1     15,3     19,6 8,5 38 65 92 1.003 1.006 1.008 50,0 1,3
16-05-2019 11,2     15,8     20,3 9,1 50 71 91 1.007 1.011 1.014 27,0 0,0
15-05-2019 12,4     18,9     25,4 13,0 38 60 82 1.011 1.014 1.017 26,0 0,0
14-05-2019 8,7     14,6     20,4 11,7 44 68 92 1.017 1.020 1.022 34,0 0,0
13-05-2019 11,0     15,3     19,6 8,6 61 77 92 1.019 1.021 1.022 23,0 0,0
12-05-2019 12,2     15,9     19,7 7,5 59 74 88 1.020 1.023 1.025 31,0 0,0
11-05-2019 16,9     21,6     26,4 9,5 41 60 79 1.016 1.019 1.022 27,0 0,0
10-05-2019 15,9     21,8     27,6 11,7 37 59 80 1.014 1.015 1.016 27,0 0,0
09-05-2019 15,9     19,2     22,6 6,7 57 68 78 1.012 1.014 1.015 32,0 0,0
08-05-2019 15,4     20,6     25,8 10,4 39 58 77 1.011 1.014 1.017 24,0 0,0
07-05-2019 12,5     17,6     22,6 10,1 46 65 83 1.016 1.018 1.020 26,0 0,0
06-05-2019 9,4     14,1     18,7 9,3 69 81 93 1.017 1.019 1.020 27,0 0,0
05-05-2019 10,3     14,4     18,6 8,3 45 69 92 1.013 1.016 1.018 37,0 0,0
04-05-2019 7,1     12,0     16,9 9,8 43 68 92 1.013 1.014 1.015 26,0 0,0
03-05-2019 8,9     13,6     18,3 9,4 37 64 91 1.009 1.012 1.015 24,0 2,8
02-05-2019 11,4     16,5     21,6 10,2 39 59 79 1.014 1.016 1.017 23,0 0,0
30-04-2019 9,4     13,8     18,3 8,9 68 81 93 1.017 1.019 1.020 27,0 0,0
28-04-2019 10,8     15,2     19,6 8,8 40 61 81 1.020 1.024 1.027 27,0 0,0
27-04-2019 10,1     14,4     18,7 8,6 42 63 83 1.025 1.027 1.028 27,0 0,0
26-04-2019 7,8     13,5     19,2 11,4 40 60 79 1.019 1.023 1.027 35,0 0,0
25-04-2019 10,1     13,8     17,5 7,4 52 68 83 1.012 1.016 1.019 37,0 0,0
24-04-2019 5,2     10,4     15,6 10,4 50 69 87 1.005 1.010 1.014 40,0 0,0
23-04-2019 9,6     13,5     17,4 7,8 45 66 86 1.000 1.003 1.005 42,0 1,3
Últims 13 mesos disponibles
04/2019 4,8 8,3 11,3 12,4 11,2 16,5 24,8 20,0 46 68 92 1.003 1.014 1.027 53,0 271,9
03/2019 4,0 7,5 11,7 12,0 9,9 16,5 22,9 18,9 35 58 79 1.013 1.024 1.031 40,0
02/2019 -0,4 5,7 11,8 9,9 4,3 14,1 22,4 22,8 29 58 93 999 1.026 1.035 72,0
01/2019 -0,5 4,7 9,3 8,3 7,5 12,0 17,4 17,9 36 60 86 1.007 1.021 1.033 71,0
12/2018 3,6 7,5 14,3 11,2 8,9 14,9 21,2 17,6 39 63 83 1.011 1.026 1.033 69,0
11/2018 5,7 8,5 12,8 11,7 10,9 14,8 19,0 13,3 34 71 87 1.002 1.017 1.025 66,0
10/2018 4,3 11,8 16,2 15,7 9,5 19,6 25,3 21,0 53 72 83 1.000 1.016 1.026 60,0
09/2018 11,6 16,9 19,7 21,4 20,2 25,9 29,4 17,8 60 75 90 1.013 1.020 1.028 40,0
08/2018 16,4 19,4 23,0 24,7 25,7 29,9 34,8 18,4 40 66 85 1.013 1.017 1.021 23,0
07/2018 16,4 19,4 22,9 25,1 27,2 30,8 34,9 18,5 38 54 76 1.011 1.015 1.020 32,0
06/2018 10,7 15,3 18,4 20,7 20,5 26,1 30,6 19,9 49 62 77 1.010 1.016 1.022 32,0
05/2018 4,9 10,9 14,7 16,4 15,3 21,9 27,0 22,1 47 65 76 1.011 1.016 1.019 42,0
04/2018 4,5 9,0 13,9 14,0 10,4 19,0 27,9 23,4 42 62 77 999 1.015 1.026 56,0
Tots els anys disponibles
2018 -1,2 11,2 23,0 15,7 4,9 20,2 34,9 36,1 34 65 93 995 1.017 1.035 69,0
Temperatura (°C)
Humitat relativa (%)
Velocitat del vent i ràfega màxima (km/h)
Direcció del vent (°)
Pressió (hPa)
Nota sobre les dades: s'avisa a l'usuari de la provisionalitat i no oficialitat d'aquestes dades
Logo AVAMET blanc
Web allotjada a Sollutia
Llicència de Creative CommonsLa web d'AVAMET i els seus continguts estan subjectes a una llicència de
Reconeixement - No Comercial - Compartir igual
Properes estacions: Altea - Club Nàutic d'Altea (Soci), Ontinyent - El Pilar (Soci), Ares del Maestrat (Ajuntament Soci), Catadau - L'Altet (Inforatge)     - - - - -      Últimes estacions: Asp - Poliesportiu (Soci), Jacarilla - centro (MeteOrihuela), Elx - Maitino/Vallverda/Velarde/Matola/Ferriol (Soci TiempoElche.com), Orihuela - Playa Flamenca (MeteOrihuela), - - -